Time;durP1;ratioP1;P1;durP2;ratioP2;P2;SDS_P1;SDS_P2;PMS_P1;PMS_P2;Temp;Humidity;BMP_temperature;BMP_pressure;BME280_temperature;BME280_humidity;BME280_pressure;Samples;Min_cycle;Max_cycle;Signal;HPM_P1;HPM_P2
2023/08/08 00:01:46;;;;;;;8.73;4.95;;;;;;;-148.88;100.00;-17125.47;5052846;28;20023;-89
2023/08/08 00:04:11;;;;;;;6.90;4.47;;;;;;;-148.88;100.00;-17125.47;5052848;28;20021;-87
2023/08/08 00:06:37;;;;;;;6.85;4.90;;;;;;;-148.88;100.00;-17125.47;5052467;28;20065;-88
2023/08/08 00:09:03;;;;;;;9.07;5.07;;;;;;;-148.88;100.00;-17125.47;5052332;28;20029;-86
2023/08/08 00:11:30;;;;;;;6.88;4.63;;;;;;;-148.88;100.00;-17125.47;5052169;28;20028;-87
2023/08/08 00:13:56;;;;;;;8.02;4.72;;;;;;;-148.88;100.00;-17125.47;5052382;28;20028;-87
2023/08/08 00:16:21;;;;;;;8.07;5.20;;;;;;;-148.88;100.00;-17125.47;5053522;28;20025;-88
2023/08/08 00:18:47;;;;;;;9.70;5.32;;;;;;;-148.88;100.00;-17125.47;5056026;28;20418;-87
2023/08/08 00:21:12;;;;;;;10.02;5.63;;;;;;;-148.88;100.00;-17125.47;5057613;28;20040;-87
2023/08/08 00:23:38;;;;;;;7.40;5.53;;;;;;;-148.88;100.00;-17125.47;5056522;28;20032;-88
2023/08/08 00:26:03;;;;;;;8.98;5.35;;;;;;;-148.88;100.00;-17125.47;5057815;28;20483;-86
2023/08/08 00:28:28;;;;;;;11.65;5.97;;;;;;;-148.88;100.00;-17125.47;5057393;28;20035;-88
2023/08/08 00:30:53;;;;;;;9.75;5.55;;;;;;;-148.88;100.00;-17125.47;5056682;28;20488;-89
2023/08/08 00:33:19;;;;;;;6.50;5.00;;;;;;;-148.88;100.00;-17125.47;5056319;28;20484;-87
2023/08/08 00:35:45;;;;;;;6.88;5.47;;;;;;;-148.88;100.00;-17125.47;5056257;28;20357;-88
2023/08/08 00:38:10;;;;;;;14.07;5.88;;;;;;;-148.88;100.00;-17125.47;5057263;28;20021;-88
2023/08/08 00:40:36;;;;;;;8.73;5.80;;;;;;;-148.88;100.00;-17125.47;5055889;28;20025;-89
2023/08/08 00:43:01;;;;;;;13.55;5.93;;;;;;;-148.88;100.00;-17125.47;5057616;28;20032;-86
2023/08/08 00:45:28;;;;;;;10.65;5.22;;;;;;;-148.88;100.00;-17125.47;5056119;28;20017;-89
2023/08/08 00:47:53;;;;;;;7.60;5.57;;;;;;;-148.88;100.00;-17125.47;5056977;28;20025;-87
2023/08/08 00:50:20;;;;;;;9.27;5.60;;;;;;;-148.88;100.00;-17125.47;5057897;28;20032;-88
2023/08/08 00:52:45;;;;;;;7.13;5.40;;;;;;;-148.88;100.00;-17125.47;5056745;28;20029;-87
2023/08/08 00:55:12;;;;;;;8.00;5.35;;;;;;;-148.88;100.00;-17125.47;5057814;28;20384;-88
2023/08/08 00:57:38;;;;;;;7.78;5.88;;;;;;;-148.88;100.00;-17125.47;5056508;28;20044;-88
2023/08/08 01:00:09;;;;;;;9.50;6.10;;;;;;;-148.88;100.00;-17125.47;5055679;28;20025;-89
2023/08/08 01:02:34;;;;;;;8.80;5.70;;;;;;;-148.88;100.00;-17125.47;5055708;28;20028;-88
2023/08/08 01:05:00;;;;;;;8.45;5.85;;;;;;;-148.88;100.00;-17125.47;5055502;28;20021;-89
2023/08/08 01:07:29;;;;;;;8.18;5.75;;;;;;;-148.88;100.00;-17125.47;5055402;28;20025;-90
2023/08/08 01:09:57;;;;;;;10.07;5.65;;;;;;;-148.88;100.00;-17125.47;5055253;28;20051;-90
2023/08/08 01:12:25;;;;;;;8.43;5.60;;;;;;;-148.88;100.00;-17125.47;5055885;28;20468;-87
2023/08/08 01:14:50;;;;;;;7.28;5.45;;;;;;;-148.88;100.00;-17125.47;5055196;28;20052;-88
2023/08/08 01:17:16;;;;;;;9.15;5.43;;;;;;;-148.88;100.00;-17125.47;5056751;28;20480;-88
2023/08/08 01:19:42;;;;;;;9.15;5.85;;;;;;;-148.88;100.00;-17125.47;5055790;28;20159;-89
2023/08/08 01:22:17;;;;;;;8.23;5.90;;;;;;;-148.88;100.00;-17125.47;5055095;28;20021;-88
2023/08/08 01:24:44;;;;;;;8.50;5.45;;;;;;;-148.88;100.00;-17125.47;5055604;28;20364;-89
2023/08/08 01:27:11;;;;;;;9.50;5.85;;;;;;;-148.88;100.00;-17125.47;5055902;28;20447;-88
2023/08/08 01:29:37;;;;;;;10.32;5.60;;;;;;;-148.88;100.00;-17125.47;5054362;28;20534;-90
2023/08/08 01:32:03;;;;;;;8.25;5.88;;;;;;;-148.88;100.00;-17125.47;5055007;28;20036;-87
2023/08/08 01:34:28;;;;;;;7.43;5.45;;;;;;;-148.88;100.00;-17125.47;5054945;28;20016;-89
2023/08/08 01:37:02;;;;;;;9.95;6.10;;;;;;;-148.88;100.00;-17125.47;5054798;28;20106;-89
2023/08/08 01:39:30;;;;;;;8.40;6.07;;;;;;;-148.88;100.00;-17125.47;5054843;28;20024;-86
2023/08/08 01:41:58;;;;;;;7.40;5.60;;;;;;;-148.88;100.00;-17125.47;5054551;28;20045;-89
2023/08/08 01:44:25;;;;;;;8.35;5.68;;;;;;;-148.88;100.00;-17125.47;5056180;28;20083;-88
2023/08/08 01:46:51;;;;;;;10.25;6.07;;;;;;;-148.88;100.00;-17125.47;5062250;28;20049;-89
2023/08/08 01:49:17;;;;;;;9.43;5.95;;;;;;;-148.88;100.00;-17125.47;5054377;28;20021;-88
2023/08/08 01:51:42;;;;;;;9.25;5.90;;;;;;;-148.88;100.00;-17125.47;5055810;28;20028;-90
2023/08/08 01:54:08;;;;;;;9.25;5.82;;;;;;;-148.88;100.00;-17125.47;5054950;28;20021;-89
2023/08/08 01:56:33;;;;;;;10.50;5.82;;;;;;;-148.88;100.00;-17125.47;5055692;28;20033;-89
2023/08/08 01:58:58;;;;;;;8.10;5.53;;;;;;;-148.88;100.00;-17125.47;5054479;28;20013;-89
2023/08/08 02:01:24;;;;;;;9.10;6.10;;;;;;;-148.88;100.00;-17125.47;5054350;28;20021;-89
2023/08/08 02:03:49;;;;;;;8.98;5.82;;;;;;;-148.88;100.00;-17125.47;5054310;28;20036;-90
2023/08/08 02:06:15;;;;;;;9.27;5.25;;;;;;;-148.88;100.00;-17125.47;5054504;28;20048;-89
2023/08/08 02:08:40;;;;;;;8.20;5.65;;;;;;;-148.88;100.00;-17125.47;5054366;28;20035;-88
2023/08/08 02:11:05;;;;;;;9.60;5.57;;;;;;;-148.88;100.00;-17125.47;5054224;28;20110;-89
2023/08/08 02:13:31;;;;;;;6.95;4.80;;;;;;;-148.88;100.00;-17125.47;5054382;28;20025;-88
2023/08/08 02:15:57;;;;;;;8.43;5.00;;;;;;;-148.88;100.00;-17125.47;5054493;28;20078;-89
2023/08/08 02:18:22;;;;;;;8.45;4.95;;;;;;;-148.88;100.00;-17125.47;5054301;28;20533;-88
2023/08/08 02:20:47;;;;;;;7.38;5.00;;;;;;;-148.88;100.00;-17125.47;5054025;28;20077;-89
2023/08/08 02:23:13;;;;;;;9.57;5.05;;;;;;;-148.88;100.00;-17125.47;5056028;28;20060;-89
2023/08/08 02:25:38;;;;;;;8.00;5.18;;;;;;;-148.88;100.00;-17125.47;5055509;28;20036;-90
2023/08/08 02:28:04;;;;;;;10.27;5.00;;;;;;;-148.88;100.00;-17125.47;5054516;28;20029;-89
2023/08/08 02:30:29;;;;;;;10.18;5.40;;;;;;;-148.88;100.00;-17125.47;5056082;28;20388;-88
2023/08/08 02:32:54;;;;;;;7.22;4.85;;;;;;;-148.88;100.00;-17125.47;5054017;28;20187;-89
2023/08/08 02:35:20;;;;;;;8.38;4.95;;;;;;;-148.88;100.00;-17125.47;5055185;28;20056;-89
2023/08/08 02:37:45;;;;;;;8.45;5.30;;;;;;;-148.88;100.00;-17125.47;5054453;28;20048;-89
2023/08/08 02:40:11;;;;;;;10.32;4.60;;;;;;;-148.88;100.00;-17125.47;5054359;28;20020;-89
2023/08/08 02:42:36;;;;;;;9.57;4.68;;;;;;;-148.88;100.00;-17125.47;5055309;28;20031;-89
2023/08/08 02:45:01;;;;;;;7.63;4.43;;;;;;;-148.88;100.00;-17125.47;5054141;28;20484;-89
2023/08/08 02:47:27;;;;;;;6.72;4.43;;;;;;;-148.88;100.00;-17125.47;5061814;28;20064;-87
2023/08/08 02:49:52;;;;;;;5.07;4.05;;;;;;;-148.88;100.00;-17125.47;5054735;28;20098;-87
2023/08/08 02:52:17;;;;;;;7.13;4.10;;;;;;;-148.88;100.00;-17125.47;5054411;28;20024;-87
2023/08/08 02:54:43;;;;;;;5.82;3.97;;;;;;;-148.88;100.00;-17125.47;5054099;28;20016;-88
2023/08/08 02:57:10;;;;;;;7.80;4.00;;;;;;;-148.88;100.00;-17125.47;5054549;28;20032;-87
2023/08/08 02:59:36;;;;;;;6.78;3.92;;;;;;;-148.88;100.00;-17125.47;5058577;28;20017;-87
2023/08/08 03:02:03;;;;;;;9.63;4.03;;;;;;;-148.88;100.00;-17125.47;5053881;28;20017;-88
2023/08/08 03:04:29;;;;;;;6.07;4.05;;;;;;;-148.88;100.00;-17125.47;5053748;28;20507;-88
2023/08/08 03:06:54;;;;;;;4.28;3.65;;;;;;;-148.88;100.00;-17125.47;5053354;28;20028;-88
2023/08/08 03:09:19;;;;;;;5.88;3.70;;;;;;;-148.88;100.00;-17125.47;5055108;28;20025;-88
2023/08/08 03:11:44;;;;;;;6.00;4.13;;;;;;;-148.88;100.00;-17125.47;5054791;28;20029;-87
2023/08/08 03:14:10;;;;;;;6.43;4.38;;;;;;;-148.88;100.00;-17125.47;5054832;28;20017;-87
2023/08/08 03:16:38;;;;;;;5.30;4.10;;;;;;;-148.88;100.00;-17125.47;5054606;28;20060;-87
2023/08/08 03:19:03;;;;;;;5.75;3.90;;;;;;;-148.88;100.00;-17125.47;5053769;28;20503;-88
2023/08/08 03:21:28;;;;;;;5.68;4.40;;;;;;;-148.88;100.00;-17125.47;5053682;28;20024;-88
2023/08/08 03:23:54;;;;;;;7.55;4.90;;;;;;;-148.88;100.00;-17125.47;5053724;28;20021;-88
2023/08/08 03:26:19;;;;;;;9.65;4.65;;;;;;;-148.88;100.00;-17125.47;5053854;28;20043;-87
2023/08/08 03:28:44;;;;;;;6.82;5.00;;;;;;;-148.88;100.00;-17125.47;5053295;28;20399;-87
2023/08/08 03:31:10;;;;;;;6.63;4.82;;;;;;;-148.88;100.00;-17125.47;5053341;28;20399;-86
2023/08/08 03:33:35;;;;;;;7.60;5.47;;;;;;;-148.88;100.00;-17125.47;5053660;28;20075;-86
2023/08/08 03:36:00;;;;;;;7.00;6.13;;;;;;;-148.88;100.00;-17125.47;5053442;28;20021;-88
2023/08/08 03:38:26;;;;;;;8.15;6.20;;;;;;;-148.88;100.00;-17125.47;5054563;28;20064;-87
2023/08/08 03:40:51;;;;;;;7.57;6.30;;;;;;;-148.88;100.00;-17125.47;5053879;28;20021;-87
2023/08/08 03:43:17;;;;;;;8.45;6.30;;;;;;;-148.88;100.00;-17125.47;5052896;28;20152;-87
2023/08/08 03:45:42;;;;;;;8.63;6.38;;;;;;;-148.88;100.00;-17125.47;5060787;28;20031;-87
2023/08/08 03:48:07;;;;;;;9.85;6.63;;;;;;;-148.88;100.00;-17125.47;5056910;28;20114;-87
2023/08/08 03:50:33;;;;;;;11.20;6.32;;;;;;;-148.88;100.00;-17125.47;5053958;28;20029;-87
2023/08/08 03:52:58;;;;;;;6.90;5.82;;;;;;;-148.88;100.00;-17125.47;5054029;28;20043;-87
2023/08/08 03:55:23;;;;;;;8.23;6.32;;;;;;;-148.88;100.00;-17125.47;5053007;28;20031;-87
2023/08/08 03:57:49;;;;;;;11.40;6.65;;;;;;;-148.88;100.00;-17125.47;5055196;28;20078;-86
2023/08/08 04:00:15;;;;;;;8.30;6.82;;;;;;;-148.88;100.00;-17125.47;5055672;28;20091;-86
2023/08/08 04:02:40;;;;;;;10.07;6.80;;;;;;;-148.88;100.00;-17125.47;5053697;28;20025;-86
2023/08/08 04:05:06;;;;;;;8.15;7.30;;;;;;;-148.88;100.00;-17125.47;5053867;28;20021;-86
2023/08/08 04:07:32;;;;;;;10.13;7.90;;;;;;;-148.88;100.00;-17125.47;5053993;28;20017;-86
2023/08/08 04:09:57;;;;;;;9.77;8.00;;;;;;;-148.88;100.00;-17125.47;5056648;28;20021;-86
2023/08/08 04:12:22;;;;;;;10.48;7.78;;;;;;;-148.88;100.00;-17125.47;5054611;28;20025;-85
2023/08/08 04:14:47;;;;;;;12.23;8.05;;;;;;;-148.88;100.00;-17125.47;5054633;28;20028;-87
2023/08/08 04:17:13;;;;;;;11.32;8.60;;;;;;;-148.88;100.00;-17125.47;5053962;28;20031;-87
2023/08/08 04:19:38;;;;;;;13.10;8.70;;;;;;;-148.88;100.00;-17125.47;5054244;28;20137;-87
2023/08/08 04:22:03;;;;;;;13.73;9.50;;;;;;;-148.88;100.00;-17125.47;5052877;28;20032;-87
2023/08/08 04:24:29;;;;;;;10.15;8.25;;;;;;;-148.88;100.00;-17125.47;5053061;28;20028;-87
2023/08/08 04:26:54;;;;;;;11.57;8.35;;;;;;;-148.88;100.00;-17125.47;5052787;28;20021;-86
2023/08/08 04:29:20;;;;;;;13.55;8.57;;;;;;;-148.88;100.00;-17125.47;5053270;28;20021;-87
2023/08/08 04:31:45;;;;;;;12.27;8.93;;;;;;;-148.88;100.00;-17125.47;5052498;28;20025;-87
2023/08/08 04:34:10;;;;;;;11.70;8.70;;;;;;;-148.88;100.00;-17125.47;5052299;28;20025;-87
2023/08/08 04:36:36;;;;;;;9.70;8.40;;;;;;;-148.88;100.00;-17125.47;5053091;28;20116;-86
2023/08/08 04:39:01;;;;;;;13.95;9.55;;;;;;;-148.88;100.00;-17125.47;5053811;28;20025;-88
2023/08/08 04:41:27;;;;;;;13.43;8.90;;;;;;;-148.88;100.00;-17125.47;5052422;28;20024;-87
2023/08/08 04:43:52;;;;;;;13.38;8.98;;;;;;;-148.88;100.00;-17125.47;5053036;28;20365;-85
2023/08/08 04:46:17;;;;;;;14.98;8.75;;;;;;;-148.88;100.00;-17125.47;5053785;28;20021;-87
2023/08/08 04:48:43;;;;;;;14.48;9.50;;;;;;;-148.88;100.00;-17125.47;5054029;28;20499;-87
2023/08/08 04:51:09;;;;;;;12.30;9.43;;;;;;;-148.88;100.00;-17125.47;5053491;28;20391;-86
2023/08/08 04:53:34;;;;;;;11.55;9.13;;;;;;;-148.88;100.00;-17125.47;5054022;28;20032;-87
2023/08/08 04:55:59;;;;;;;14.27;8.55;;;;;;;-148.88;100.00;-17125.47;5053531;28;20377;-85
2023/08/08 04:58:25;;;;;;;14.15;9.23;;;;;;;-148.88;100.00;-17125.47;5052866;28;20056;-87
2023/08/08 05:00:50;;;;;;;13.88;9.10;;;;;;;-148.88;100.00;-17125.47;5053216;28;20056;-86
2023/08/08 05:03:16;;;;;;;14.57;9.68;;;;;;;-148.88;100.00;-17125.47;5052871;28;20104;-87
2023/08/08 05:05:44;;;;;;;17.40;10.45;;;;;;;-148.88;100.00;-17125.47;5057716;28;20025;-87
2023/08/08 05:08:10;;;;;;;16.13;10.35;;;;;;;-148.88;100.00;-17125.47;5057419;28;20024;-87
2023/08/08 05:10:35;;;;;;;16.00;11.00;;;;;;;-148.88;100.00;-17125.47;5056191;28;20017;-87
2023/08/08 05:13:01;;;;;;;13.88;11.15;;;;;;;-148.88;100.00;-17125.47;5058807;28;20037;-87
2023/08/08 05:15:26;;;;;;;13.18;11.05;;;;;;;-148.88;100.00;-17125.47;5056585;28;20075;-87
2023/08/08 05:17:53;;;;;;;17.17;11.02;;;;;;;-148.88;100.00;-17125.47;5056460;28;20118;-85
2023/08/08 05:20:19;;;;;;;14.63;10.93;;;;;;;-148.88;100.00;-17125.47;5055681;28;20017;-87
2023/08/08 05:22:44;;;;;;;17.88;11.63;;;;;;;-148.88;100.00;-17125.47;5056432;28;20391;-87
2023/08/08 05:25:10;;;;;;;16.35;11.27;;;;;;;-148.88;100.00;-17125.47;5056255;28;20086;-87
2023/08/08 05:27:35;;;;;;;17.52;11.55;;;;;;;-148.88;100.00;-17125.47;5055348;28;20487;-86
2023/08/08 05:30:01;;;;;;;13.57;11.20;;;;;;;-148.88;100.00;-17125.47;5055969;28;20053;-87
2023/08/08 05:32:26;;;;;;;15.77;11.52;;;;;;;-148.88;100.00;-17125.47;5056092;28;20029;-87
2023/08/08 05:34:51;;;;;;;15.88;10.40;;;;;;;-148.88;100.00;-17125.47;5058024;28;20083;-86
2023/08/08 05:37:17;;;;;;;13.93;10.25;;;;;;;-148.88;100.00;-17125.47;5056885;28;20033;-87
2023/08/08 05:39:42;;;;;;;15.18;10.63;;;;;;;-148.88;100.00;-17125.47;5055994;28;20080;-87
2023/08/08 05:42:08;;;;;;;15.25;10.50;;;;;;;-148.88;100.00;-17125.47;5057144;28;20364;-86
2023/08/08 05:44:33;;;;;;;14.98;10.85;;;;;;;-148.88;100.00;-17125.47;5055950;28;20029;-87
2023/08/08 05:46:58;;;;;;;17.77;10.50;;;;;;;-148.88;100.00;-17125.47;5057189;28;20033;-87
2023/08/08 05:49:23;;;;;;;15.35;10.95;;;;;;;-148.88;100.00;-17125.47;5056023;28;20025;-87
2023/08/08 05:51:49;;;;;;;17.05;10.88;;;;;;;-148.88;100.00;-17125.47;5055318;28;20032;-88
2023/08/08 05:54:14;;;;;;;12.60;10.63;;;;;;;-148.88;100.00;-17125.47;5055573;28;20029;-87
2023/08/08 05:56:39;;;;;;;14.82;11.00;;;;;;;-148.88;100.00;-17125.47;5057036;28;20025;-87
2023/08/08 05:59:05;;;;;;;15.32;11.48;;;;;;;-148.88;100.00;-17125.47;5056514;28;20013;-86
2023/08/08 06:01:31;;;;;;;17.23;10.55;;;;;;;-148.88;100.00;-17125.47;5055612;28;20403;-87
2023/08/08 06:03:59;;;;;;;19.10;10.55;;;;;;;-148.88;100.00;-17125.47;5054823;28;20025;-88
2023/08/08 06:06:25;;;;;;;16.55;10.75;;;;;;;-148.88;100.00;-17125.47;5054541;28;20047;-88
2023/08/08 06:08:50;;;;;;;15.80;10.50;;;;;;;-148.88;100.00;-17125.47;5054794;28;20480;-87
2023/08/08 06:11:15;;;;;;;15.82;10.00;;;;;;;-148.88;100.00;-17125.47;5054411;28;20111;-86
2023/08/08 06:13:41;;;;;;;16.85;9.57;;;;;;;-148.88;100.00;-17125.47;5055054;28;20033;-86
2023/08/08 06:16:06;;;;;;;12.73;9.55;;;;;;;-148.88;100.00;-17125.47;5053507;28;20395;-86
2023/08/08 06:18:36;;;;;;;16.20;9.20;;;;;;;-148.88;100.00;-17125.47;5054533;28;20017;-87
2023/08/08 06:21:01;;;;;;;12.15;8.98;;;;;;;-148.88;100.00;-17125.47;5055707;28;20092;-85
2023/08/08 06:23:27;;;;;;;13.02;8.40;;;;;;;-148.88;100.00;-17125.47;5054551;28;20432;-87
2023/08/08 06:25:52;;;;;;;12.98;7.95;;;;;;;-148.88;100.00;-17125.47;5054095;28;20407;-87
2023/08/08 06:28:18;;;;;;;13.70;7.93;;;;;;;-148.88;100.00;-17125.47;5054498;28;20072;-87
2023/08/08 06:30:43;;;;;;;10.98;7.15;;;;;;;-148.88;100.00;-17125.47;5053767;28;20017;-87
2023/08/08 06:33:08;;;;;;;9.40;6.93;;;;;;;-148.88;100.00;-17125.47;5054093;28;20028;-87
2023/08/08 06:35:34;;;;;;;9.00;6.68;;;;;;;-148.88;100.00;-17125.47;5054100;28;20029;-87
2023/08/08 06:37:59;;;;;;;13.07;6.50;;;;;;;-148.88;100.00;-17125.47;5054242;28;20021;-88
2023/08/08 06:40:25;;;;;;;12.13;6.63;;;;;;;-148.88;100.00;-17125.47;5054138;28;20154;-88
2023/08/08 06:42:50;;;;;;;10.98;6.47;;;;;;;-148.88;100.00;-17125.47;5055127;28;20060;-87
2023/08/08 06:45:16;;;;;;;12.15;6.20;;;;;;;-148.88;100.00;-17125.47;5054375;28;20032;-87
2023/08/08 06:47:41;;;;;;;7.93;6.03;;;;;;;-148.88;100.00;-17125.47;5054232;28;20064;-87
2023/08/08 06:50:07;;;;;;;12.00;6.65;;;;;;;-148.88;100.00;-17125.47;5055107;28;20020;-88
2023/08/08 06:52:32;;;;;;;10.10;6.55;;;;;;;-148.88;100.00;-17125.47;5053765;28;20031;-87
2023/08/08 06:54:58;;;;;;;14.15;6.75;;;;;;;-148.88;100.00;-17125.47;5055162;28;20100;-87
2023/08/08 06:57:23;;;;;;;9.55;5.47;;;;;;;-148.88;100.00;-17125.47;5054751;28;20442;-87
2023/08/08 06:59:50;;;;;;;12.68;6.63;;;;;;;-148.88;100.00;-17125.47;5053611;28;20028;-88
2023/08/08 07:02:17;;;;;;;11.02;6.13;;;;;;;-148.88;100.00;-17125.47;5053231;28;20506;-87
2023/08/08 07:04:42;;;;;;;13.32;6.10;;;;;;;-148.88;100.00;-17125.47;5053580;28;20025;-89
2023/08/08 07:07:08;;;;;;;10.10;5.50;;;;;;;-148.88;100.00;-17125.47;5053403;28;20021;-89
2023/08/08 07:09:33;;;;;;;11.30;6.10;;;;;;;-148.88;100.00;-17125.47;5053516;28;20487;-90
2023/08/08 07:11:58;;;;;;;10.77;6.15;;;;;;;-148.88;100.00;-17125.47;5053365;28;20117;-88
2023/08/08 07:14:24;;;;;;;11.15;6.10;;;;;;;-148.88;100.00;-17125.47;5053275;28;20427;-88
2023/08/08 07:16:49;;;;;;;9.80;6.30;;;;;;;-148.88;100.00;-17125.47;5053299;28;20029;-90
2023/08/08 07:19:15;;;;;;;10.68;5.65;;;;;;;-148.88;100.00;-17125.47;5053083;28;20017;-88
2023/08/08 07:21:41;;;;;;;10.05;5.78;;;;;;;-148.88;100.00;-17125.47;5053339;28;20020;-87
2023/08/08 07:24:06;;;;;;;11.07;5.80;;;;;;;-148.88;100.00;-17125.47;5053445;28;20073;-89
2023/08/08 07:26:31;;;;;;;10.20;5.40;;;;;;;-148.88;100.00;-17125.47;5053491;28;20028;-87
2023/08/08 07:28:57;;;;;;;9.75;5.85;;;;;;;-148.88;100.00;-17125.47;5052922;28;20083;-87
2023/08/08 07:31:22;;;;;;;9.98;6.00;;;;;;;-148.88;100.00;-17125.47;5052988;28;20399;-88
2023/08/08 07:33:48;;;;;;;10.00;5.82;;;;;;;-148.88;100.00;-17125.47;5053637;28;20024;-89
2023/08/08 07:36:13;;;;;;;9.73;6.93;;;;;;;-148.88;100.00;-17125.47;5053400;28;20068;-87
2023/08/08 07:38:38;;;;;;;9.80;6.30;;;;;;;-148.88;100.00;-17125.47;5052975;28;20025;-87
2023/08/08 07:41:04;;;;;;;14.85;6.82;;;;;;;-148.88;100.00;-17125.47;5053581;28;20020;-90
2023/08/08 07:43:35;;;;;;;10.30;6.43;;;;;;;-148.88;100.00;-17125.47;5053838;28;20033;-91
2023/08/08 07:46:00;;;;;;;10.70;6.70;;;;;;;-148.88;100.00;-17125.47;5053588;28;20415;-92
2023/08/08 07:48:25;;;;;;;12.43;7.15;;;;;;;-148.88;100.00;-17125.47;5053342;28;20479;-89
2023/08/08 07:50:51;;;;;;;11.85;8.05;;;;;;;-148.88;100.00;-17125.47;5054485;28;20033;-92
2023/08/08 07:53:17;;;;;;;13.02;7.28;;;;;;;-148.88;100.00;-17125.47;5055435;28;20029;-90
2023/08/08 07:55:42;;;;;;;14.32;7.28;;;;;;;-148.88;100.00;-17125.47;5054485;28;20024;-91
2023/08/08 07:58:08;;;;;;;10.82;6.90;;;;;;;-148.88;100.00;-17125.47;5053684;28;20100;-92
2023/08/08 08:01:13;;;;;;;12.57;7.05;;;;;;;-148.88;100.00;-17125.47;5054151;28;20398;-92
2023/08/08 08:04:03;;;;;;;11.63;6.50;;;;;;;-148.88;100.00;-17125.47;5021246;28;20044;-91
2023/08/08 08:07:04;;;;;;;9.93;6.32;;;;;;;-148.88;100.00;-17125.47;5053111;28;20116;-90
2023/08/08 08:09:29;;;;;;;10.25;6.75;;;;;;;-148.88;100.00;-17125.47;4975772;28;20513;-89
2023/08/08 08:15:54;;;;;;;12.93;6.95;;;;;;;-148.88;100.00;-17125.47;5054848;28;20040;-89
2023/08/08 08:18:28;;;;;;;9.82;6.55;;;;;;;-148.88;100.00;-17125.47;5054497;28;20025;-92
2023/08/08 08:20:55;;;;;;;8.90;6.30;;;;;;;-148.88;100.00;-17125.47;5053777;28;20491;-89
2023/08/08 08:27:20;;;;;;;10.07;6.25;;;;;;;-148.88;100.00;-17125.47;5030668;28;20036;-92
2023/08/08 08:29:59;;;;;;;;;;;;;;;;;;;;;
2023/08/08 08:36:23;;;;;;;10.95;7.43;;;;;;;-148.88;100.00;-17125.47;5013947;28;20521;-91
2023/08/08 08:38:48;;;;;;;12.15;7.38;;;;;;;-148.88;100.00;-17125.47;5052606;28;20029;-88
2023/08/08 08:41:18;;;;;;;12.73;7.95;;;;;;;-148.88;100.00;-17125.47;5056870;28;20079;-89
2023/08/08 08:43:43;;;;;;;13.52;7.93;;;;;;;-148.88;100.00;-17125.47;5056364;28;20494;-88
2023/08/08 08:46:11;;;;;;;13.05;7.57;;;;;;;-148.88;100.00;-17125.47;5056596;28;20029;-88
2023/08/08 08:48:37;;;;;;;11.77;8.02;;;;;;;-148.88;100.00;-17125.47;5058182;28;20021;-90
2023/08/08 08:51:03;;;;;;;11.50;7.03;;;;;;;-148.88;100.00;-17125.47;5055810;28;20031;-87
2023/08/08 08:53:29;;;;;;;12.68;6.93;;;;;;;-148.88;100.00;-17125.47;5055546;28;20395;-86
2023/08/08 08:56:29;;;;;;;;;;;;;;;;;;;;;
2023/08/08 08:59:08;;;;;;;10.90;6.10;;;;;;;-148.88;100.00;-17125.47;5056994;28;20041;-86
2023/08/08 09:01:33;;;;;;;9.10;5.15;;;;;;;-148.88;100.00;-17125.47;5055937;28;20364;-88
2023/08/08 09:03:59;;;;;;;7.03;4.07;;;;;;;-148.88;100.00;-17125.47;5055938;28;20032;-89
2023/08/08 09:06:40;;;;;;;5.35;3.63;;;;;;;-148.88;100.00;-17125.47;5056891;28;20028;-87
2023/08/08 09:09:25;;;;;;;7.18;3.53;;;;;;;-148.88;100.00;-17125.47;5056207;28;20032;-85
2023/08/08 09:11:54;;;;;;;6.60;3.40;;;;;;;-148.88;99.87;-17125.47;5055480;28;20029;-88
2023/08/08 09:14:48;;;;;;;5.18;3.35;;;;;;;-148.88;97.05;-17125.47;5056180;28;20029;-86
2023/08/08 09:17:14;;;;;;;;;;;;;;;-148.88;95.64;-17125.47;5055658;28;20039;-88
2023/08/08 09:19:51;;;;;;;5.78;3.28;;;;;;;-148.88;94.60;-17125.47;5056554;28;19912;-87
2023/08/08 09:22:37;;;;;;;;;;;;;;;;;;;;;
2023/08/08 09:25:20;;;;;;;6.70;3.05;;;;;;;-148.88;94.11;-17125.47;5056724;28;20025;-87
2023/08/08 09:27:53;;;;;;;8.02;3.60;;;;;;;-148.88;95.35;-17125.47;5057374;28;20112;-86
2023/08/08 09:30:24;;;;;;;8.63;4.15;;;;;;;-148.88;97.32;-17125.47;5054866;28;20021;-87
2023/08/08 09:32:55;;;;;;;8.32;3.50;;;;;;;-148.88;96.98;-17125.47;5055602;28;20112;-87
2023/08/08 09:35:34;;;;;;;6.35;3.53;;;;;;;-148.88;98.60;-17125.47;5056118;28;20051;-87
2023/08/08 09:38:23;;;;;;;11.45;7.38;;;;;;;-148.88;100.00;-17125.47;5054415;28;20044;-87
2023/08/08 09:40:54;;;;;;;9.13;4.70;;;;;;;-148.88;100.00;-17125.47;5055817;28;20525;-87
2023/08/08 09:43:25;;;;;;;6.78;5.15;;;;;;;-148.88;100.00;-17125.47;5056040;28;20025;-86
2023/08/08 09:45:51;;;;;;;8.35;5.68;;;;;;;-148.88;100.00;-17125.47;5055100;28;20387;-87
2023/08/08 09:48:18;;;;;;;8.65;5.47;;;;;;;-148.88;100.00;-17125.47;5055915;28;20039;-88
2023/08/08 09:50:44;;;;;;;12.55;6.70;;;;;;;-148.88;100.00;-17125.47;5055762;28;20083;-87
2023/08/08 09:53:22;;;;;;;12.93;7.30;;;;;;;-148.88;100.00;-17125.47;5055104;28;20024;-86
2023/08/08 09:55:48;;;;;;;10.23;4.65;;;;;;;-148.88;100.00;-17125.47;5054578;28;20124;-87
2023/08/08 09:58:14;;;;;;;7.32;3.85;;;;;;;-148.88;100.00;-17125.47;5054501;28;20051;-88
2023/08/08 10:00:49;;;;;;;6.95;3.50;;;;;;;-148.88;97.53;-17125.47;5054525;28;20115;-88
2023/08/08 10:03:16;;;;;;;6.40;3.50;;;;;;;-148.88;96.63;-17125.47;5055888;28;20025;-87
2023/08/08 10:05:41;;;;;;;5.65;3.08;;;;;;;-148.88;94.36;-17125.47;5055963;28;20475;-89
2023/08/08 10:08:07;;;;;;;8.38;2.47;;;;;;;-148.88;86.41;-17125.47;5054458;28;20029;-86
2023/08/08 10:10:32;;;;;;;4.50;2.15;;;;;;;-148.88;84.54;-17125.47;5055308;28;20032;-86
2023/08/08 10:12:59;;;;;;;5.40;2.65;;;;;;;-148.88;83.77;-17125.47;5055731;28;20025;-90
2023/08/08 10:15:27;;;;;;;5.80;2.30;;;;;;;-148.88;83.57;-17125.47;5054147;28;20021;-87
2023/08/08 10:17:57;;;;;;;7.25;2.70;;;;;;;-148.88;83.94;-17125.47;5054931;28;20104;-88
2023/08/08 10:20:25;;;;;;;4.65;1.90;;;;;;;-148.88;80.15;-17125.47;5053902;28;20025;-89
2023/08/08 10:22:55;;;;;;;3.47;1.80;;;;;;;-148.88;75.23;-17125.47;5054355;28;20021;-86
2023/08/08 10:25:33;;;;;;;5.50;2.47;;;;;;;-148.88;72.39;-17125.47;5055808;28;20391;-88
2023/08/08 10:28:08;;;;;;;6.55;2.72;;;;;;;-148.88;76.38;-17125.47;5051891;28;20120;-87
2023/08/08 10:31:18;;;;;;;5.13;3.08;;;;;;;-148.88;76.94;-17125.47;5055106;28;20017;-87
2023/08/08 10:33:44;;;;;;;5.85;2.00;;;;;;;-148.88;76.90;-17125.47;5032960;28;20033;-86
2023/08/08 10:36:15;;;;;;;6.18;2.47;;;;;;;-148.88;76.77;-17125.47;5072338;28;20017;-87
2023/08/08 10:38:50;;;;;;;5.63;2.92;;;;;;;-148.88;77.69;-17125.47;5066062;28;20013;-89
2023/08/08 10:41:22;;;;;;;7.10;3.55;;;;;;;-148.88;79.93;-17125.47;5055914;28;20020;-87
2023/08/08 10:43:56;;;;;;;6.43;2.95;;;;;;;-148.88;81.79;-17125.47;5055364;28;20044;-88
2023/08/08 10:46:33;;;;;;;7.85;3.35;;;;;;;-148.88;82.69;-17125.47;5054270;28;20506;-89
2023/08/08 10:49:01;;;;;;;9.43;4.80;;;;;;;-148.88;81.93;-17125.47;5053774;28;20040;-88
2023/08/08 10:51:52;;;;;;;6.13;2.45;;;;;;;-148.88;81.46;-17125.47;5054387;28;20028;-88
2023/08/08 10:54:37;;;;;;;;;;;;;;;;;;;;;
2023/08/08 10:57:19;;;;;;;4.80;1.75;;;;;;;-148.88;82.46;-17125.47;5055015;28;20043;-88
2023/08/08 10:59:44;;;;;;;6.50;2.47;;;;;;;-148.88;81.98;-17125.47;5053817;28;20031;-88
2023/08/08 11:02:10;;;;;;;10.73;3.30;;;;;;;-148.88;83.44;-17125.47;5052841;28;20108;-89
2023/08/08 11:04:36;;;;;;;4.10;2.00;;;;;;;-148.88;82.40;-17125.47;5053441;28;20116;-87
2023/08/08 11:07:10;;;;;;;4.43;1.88;;;;;;;-148.88;80.90;-17125.47;5053558;28;20059;-87
2023/08/08 11:09:46;;;;;;;5.88;1.90;;;;;;;-148.88;75.66;-17125.47;5053196;28;20033;-88
2023/08/08 11:12:15;;;;;;;7.18;1.85;;;;;;;-148.88;76.10;-17125.47;5054092;28;20033;-89
2023/08/08 11:15:00;;;;;;;3.92;1.67;;;;;;;-148.88;76.10;-17125.47;5053431;28;20044;-88
2023/08/08 11:17:27;;;;;;;6.28;1.67;;;;;;;-148.88;77.65;-17125.47;5054050;28;20091;-87
2023/08/08 11:20:17;;;;;;;5.38;1.38;;;;;;;-148.88;77.01;-17125.47;5051980;28;20044;-87